Time;durP1;ratioP1;P1;durP2;ratioP2;P2;SDS_P1;SDS_P2;PMS_P1;PMS_P2;Temp;Humidity;BMP_temperature;BMP_pressure;BME280_temperature;BME280_humidity;BME280_pressure;Samples;Min_cycle;Max_cycle;Signal;HPM_P1;HPM_P2
2023/08/29 00:00:20;;;;;;;9.90;6.45;;;;;;;16.48;71.84;101162.63;5055007;28;20028;-66
2023/08/29 00:02:46;;;;;;;6.70;5.90;;;;;;;16.43;71.90;101165.44;5061106;28;20439;-66
2023/08/29 00:05:12;;;;;;;7.45;6.13;;;;;;;16.39;72.06;101164.34;5051774;28;20072;-65
2023/08/29 00:07:38;;;;;;;7.50;6.13;;;;;;;16.37;71.93;101167.41;5052442;28;20029;-65
2023/08/29 00:10:04;;;;;;;8.07;5.95;;;;;;;16.38;71.77;101163.47;5054833;28;20079;-65
2023/08/29 00:12:29;;;;;;;8.32;5.75;;;;;;;16.38;71.62;101165.44;5057493;28;20052;-65
2023/08/29 00:14:56;;;;;;;7.68;5.90;;;;;;;16.35;71.56;101164.06;5072334;28;20479;-65
2023/08/29 00:17:22;;;;;;;6.10;5.53;;;;;;;16.32;71.55;101164.63;5072653;28;20139;-65
2023/08/29 00:19:48;;;;;;;6.85;6.18;;;;;;;16.33;71.58;101163.50;5071342;28;20119;-66
2023/08/29 00:22:13;;;;;;;7.00;6.15;;;;;;;16.33;71.29;101157.06;5072261;28;20131;-66
2023/08/29 00:24:38;;;;;;;7.43;5.72;;;;;;;16.31;70.72;101145.28;5066797;28;20029;-66
2023/08/29 00:27:04;;;;;;;6.53;5.75;;;;;;;16.27;71.01;101145.03;5057114;28;20032;-67
2023/08/29 00:29:29;;;;;;;6.60;6.00;;;;;;;16.26;71.02;101143.34;5051783;28;20025;-66
2023/08/29 00:31:55;;;;;;;8.30;6.50;;;;;;;16.24;71.15;101142.81;5071591;28;20513;-67
2023/08/29 00:34:20;;;;;;;7.82;6.07;;;;;;;16.22;71.10;101142.22;5070129;28;20103;-66
2023/08/29 00:36:45;;;;;;;6.95;6.22;;;;;;;16.26;71.32;101142.50;5072014;28;20049;-66
2023/08/29 00:39:10;;;;;;;7.45;6.72;;;;;;;16.20;71.50;101138.91;5071918;28;20444;-66
2023/08/29 00:41:36;;;;;;;7.43;6.63;;;;;;;16.21;71.52;101143.38;5071133;28;20032;-67
2023/08/29 00:44:01;;;;;;;6.93;6.28;;;;;;;16.19;71.56;101143.66;5063424;28;20051;-66
2023/08/29 00:46:27;;;;;;;7.32;6.25;;;;;;;16.16;71.25;101146.19;5060182;28;20021;-66
2023/08/29 00:48:54;;;;;;;7.03;6.30;;;;;;;16.11;71.34;101141.44;5071378;28;20028;-66
2023/08/29 00:51:19;;;;;;;6.72;6.10;;;;;;;16.12;71.18;101142.28;5070320;28;20035;-66
2023/08/29 00:53:45;;;;;;;8.23;6.40;;;;;;;16.11;71.56;101135.84;5071187;28;20024;-66
2023/08/29 00:56:12;;;;;;;7.00;6.40;;;;;;;16.10;71.79;101145.34;5070578;28;20024;-67
2023/08/29 00:58:39;;;;;;;7.70;6.90;;;;;;;16.09;71.63;101154.88;5070701;28;20029;-66
2023/08/29 01:01:04;;;;;;;9.45;7.13;;;;;;;16.09;71.54;101134.44;5070760;28;20028;-66
2023/08/29 01:03:30;;;;;;;7.22;6.45;;;;;;;16.10;71.31;101138.91;5053754;28;20389;-66
2023/08/29 01:05:55;;;;;;;7.25;6.47;;;;;;;16.02;71.52;101134.72;5082053;28;20091;-66
2023/08/29 01:08:21;;;;;;;9.50;7.00;;;;;;;16.03;71.45;101138.34;5070943;28;20044;-66
2023/08/29 01:10:59;;;;;;;7.55;6.75;;;;;;;16.01;71.36;101132.22;5063180;28;20053;-66
2023/08/29 01:13:41;;;;;;;6.80;6.13;;;;;;;16.00;71.32;101133.34;5067122;28;20110;-66
2023/08/29 01:16:09;;;;;;;7.43;6.73;;;;;;;15.97;71.35;101129.13;5059392;28;20036;-66
2023/08/29 01:18:37;;;;;;;8.73;7.10;;;;;;;15.91;71.44;101136.69;5051204;28;20358;-66
2023/08/29 01:21:17;;;;;;;7.80;6.50;;;;;;;15.97;71.04;101133.91;5070178;28;20119;-67
2023/08/29 01:23:48;;;;;;;7.50;6.70;;;;;;;15.85;70.78;101129.44;5071308;28;20071;-66
2023/08/29 01:26:16;;;;;;;7.03;6.35;;;;;;;15.87;70.66;101132.78;5070517;28;20392;-66
2023/08/29 01:28:46;;;;;;;7.45;6.75;;;;;;;15.83;71.53;101139.22;5068620;28;20025;-66
2023/08/29 01:31:12;;;;;;;7.97;6.68;;;;;;;15.83;71.41;101137.25;5070690;28;20086;-66
2023/08/29 01:33:39;;;;;;;10.15;6.32;;;;;;;15.82;71.33;101140.34;5064828;28;20028;-66
2023/08/29 01:36:05;;;;;;;7.95;6.57;;;;;;;15.80;71.22;101142.56;5065676;28;20059;-66
2023/08/29 01:38:30;;;;;;;7.68;6.70;;;;;;;15.75;71.35;101142.59;5055226;28;20036;-67
2023/08/29 01:40:56;;;;;;;10.23;7.00;;;;;;;15.77;71.26;101138.41;5071655;28;20539;-66
2023/08/29 01:43:21;;;;;;;7.22;6.63;;;;;;;15.74;70.54;101136.16;5062446;28;20032;-66
2023/08/29 01:45:46;;;;;;;7.03;6.30;;;;;;;15.72;70.80;101141.22;5051534;28;20207;-66
2023/08/29 01:48:12;;;;;;;8.73;5.93;;;;;;;15.76;70.66;101135.88;5051298;28;20100;-67
2023/08/29 01:50:38;;;;;;;6.57;5.97;;;;;;;15.69;70.79;101139.81;5059150;28;20028;-66
2023/08/29 01:53:04;;;;;;;7.78;6.10;;;;;;;15.62;70.80;101144.81;5084541;28;20029;-66
2023/08/29 01:55:30;;;;;;;7.80;7.00;;;;;;;15.63;70.83;101140.03;5063818;28;20043;-66
2023/08/29 01:57:57;;;;;;;7.60;6.40;;;;;;;15.60;70.95;101147.06;5067114;28;20451;-66
2023/08/29 02:00:24;;;;;;;7.63;6.93;;;;;;;15.62;71.16;101143.97;5080826;28;20025;-66
2023/08/29 02:02:49;;;;;;;6.95;6.28;;;;;;;15.59;71.20;101150.13;5067594;28;20499;-66
2023/08/29 02:05:14;;;;;;;7.88;7.13;;;;;;;15.57;71.28;101158.81;5056468;28;20020;-66
2023/08/29 02:07:40;;;;;;;7.60;6.90;;;;;;;15.57;71.09;101153.22;5060593;28;20075;-66
2023/08/29 02:10:06;;;;;;;7.43;6.72;;;;;;;15.57;71.04;101160.75;5089032;28;20111;-66
2023/08/29 02:12:31;;;;;;;7.55;6.32;;;;;;;15.51;71.08;101148.72;5061739;28;20784;-66
2023/08/29 02:14:56;;;;;;;6.90;6.20;;;;;;;15.54;70.89;101153.75;5051108;28;20021;-66
2023/08/29 02:17:22;;;;;;;7.75;6.97;;;;;;;15.54;70.61;101147.31;5051493;28;20044;-66
2023/08/29 02:19:47;;;;;;;7.97;7.00;;;;;;;15.52;70.77;101141.16;5061655;28;20044;-66
2023/08/29 02:22:12;;;;;;;7.53;6.68;;;;;;;15.49;70.74;101155.72;5074514;28;20047;-66
2023/08/29 02:24:38;;;;;;;7.82;6.75;;;;;;;15.49;70.68;101162.16;5091380;28;20410;-66
2023/08/29 02:27:04;;;;;;;7.05;6.35;;;;;;;15.43;70.47;101172.47;5060486;28;20475;-66
2023/08/29 02:29:29;;;;;;;7.35;6.43;;;;;;;15.40;70.25;101166.59;5058228;28;20043;-66
2023/08/29 02:31:55;;;;;;;7.15;6.30;;;;;;;15.36;70.01;101165.47;5073721;28;20124;-66
2023/08/29 02:34:20;;;;;;;10.32;6.55;;;;;;;15.37;70.28;101172.78;5074284;28;20032;-66
2023/08/29 02:36:45;;;;;;;7.18;6.45;;;;;;;15.33;70.53;101178.09;5064889;28;20096;-66
2023/08/29 02:39:11;;;;;;;7.50;6.68;;;;;;;15.35;70.73;101183.38;5070294;28;20040;-66
2023/08/29 02:41:37;;;;;;;7.10;6.35;;;;;;;15.36;70.99;101177.50;5072553;28;20025;-66
2023/08/29 02:44:03;;;;;;;7.80;7.05;;;;;;;15.37;71.08;101189.56;5067903;28;20028;-66
2023/08/29 02:46:28;;;;;;;8.10;7.32;;;;;;;15.30;70.97;101192.63;5057226;28;20407;-67
2023/08/29 02:48:53;;;;;;;7.53;6.78;;;;;;;15.29;71.00;101187.28;5076627;28;20024;-67
2023/08/29 02:51:19;;;;;;;7.78;7.07;;;;;;;15.28;70.43;101189.25;5082934;28;20106;-66
2023/08/29 02:53:44;;;;;;;8.55;7.40;;;;;;;15.28;70.82;101189.25;5073273;28;20495;-66
2023/08/29 02:56:10;;;;;;;8.32;7.45;;;;;;;15.25;70.52;101178.63;5069263;28;20482;-66
2023/08/29 02:58:35;;;;;;;7.25;6.22;;;;;;;15.20;70.62;101179.44;5070647;28;20115;-66
2023/08/29 03:01:00;;;;;;;7.05;6.38;;;;;;;15.22;70.20;101180.00;5063379;28;20475;-66
2023/08/29 03:03:26;;;;;;;6.80;6.20;;;;;;;15.22;70.25;101181.97;5072656;28;20436;-66
2023/08/29 03:05:59;;;;;;;7.72;6.65;;;;;;;15.20;70.58;101185.03;5062888;28;20025;-66
2023/08/29 03:08:25;;;;;;;6.88;6.28;;;;;;;15.20;70.38;101192.56;5053140;28;20082;-66
2023/08/29 03:10:51;;;;;;;7.65;6.78;;;;;;;15.16;70.49;101186.69;5053606;28;20496;-67
2023/08/29 03:13:17;;;;;;;6.93;6.30;;;;;;;15.15;70.47;101185.03;5053478;28;20017;-66
2023/08/29 03:15:46;;;;;;;7.13;6.43;;;;;;;15.11;70.71;101188.66;5069985;28;20060;-67
2023/08/29 03:18:11;;;;;;;6.55;5.75;;;;;;;15.10;70.51;101184.19;5070593;28;20555;-66
2023/08/29 03:20:43;;;;;;;6.55;5.88;;;;;;;15.11;70.57;101188.66;5053114;28;20108;-66
2023/08/29 03:23:09;;;;;;;9.30;6.32;;;;;;;15.07;70.48;101184.72;5052932;28;20025;-66
2023/08/29 03:25:34;;;;;;;6.43;5.82;;;;;;;15.07;70.58;101188.34;5053652;28;20025;-66
2023/08/29 03:28:00;;;;;;;6.75;6.05;;;;;;;15.04;70.52;101188.06;5057422;28;20463;-66
2023/08/29 03:30:26;;;;;;;6.70;6.00;;;;;;;15.01;70.85;101188.59;5070376;28;20040;-66
2023/08/29 03:32:51;;;;;;;9.38;6.43;;;;;;;14.97;70.67;101186.38;5073574;28;20089;-66
2023/08/29 03:35:18;;;;;;;7.18;6.47;;;;;;;14.97;70.83;101183.59;5070394;28;20429;-67
2023/08/29 03:37:44;;;;;;;6.88;6.22;;;;;;;14.96;70.80;101176.28;5054390;28;20032;-66
2023/08/29 03:40:10;;;;;;;7.57;6.85;;;;;;;14.95;70.89;101173.78;5068965;28;20400;-66
2023/08/29 03:42:35;;;;;;;6.80;5.88;;;;;;;14.90;70.67;101169.03;5052318;28;20124;-67
2023/08/29 03:45:01;;;;;;;7.40;6.63;;;;;;;14.89;70.55;101156.13;5068463;28;20095;-66
2023/08/29 03:47:26;;;;;;;6.63;6.05;;;;;;;14.88;70.66;101162.00;5069927;28;20040;-66
2023/08/29 03:49:53;;;;;;;6.50;5.85;;;;;;;14.87;70.65;101160.34;5052036;28;20237;-66
2023/08/29 03:52:28;;;;;;;7.50;6.30;;;;;;;14.85;70.51;101154.19;5053113;28;20137;-66
2023/08/29 03:54:54;;;;;;;6.57;5.90;;;;;;;14.88;70.17;101142.44;5054907;28;20032;-66
2023/08/29 03:57:20;;;;;;;7.65;6.60;;;;;;;14.83;70.07;101143.28;5069935;28;20036;-66
2023/08/29 03:59:46;;;;;;;7.28;6.68;;;;;;;14.84;70.36;101138.53;5065054;28;20061;-66
2023/08/29 04:02:11;;;;;;;7.85;6.82;;;;;;;14.83;70.82;101146.06;5052912;28;20083;-66
2023/08/29 04:04:36;;;;;;;7.53;6.82;;;;;;;14.82;70.84;101144.41;5051999;28;20025;-66
2023/08/29 04:07:02;;;;;;;7.25;6.47;;;;;;;14.81;70.58;101139.06;5052834;28;20029;-66
2023/08/29 04:09:27;;;;;;;7.25;6.55;;;;;;;14.81;70.15;101144.66;5052581;28;20017;-66
2023/08/29 04:11:53;;;;;;;8.93;6.93;;;;;;;14.74;70.62;101142.16;5051835;28;20036;-66
2023/08/29 04:14:18;;;;;;;7.32;6.57;;;;;;;14.73;70.58;101140.44;5075145;28;20133;-66
2023/08/29 04:16:44;;;;;;;7.63;6.82;;;;;;;14.76;70.74;101125.94;5092721;28;20072;-66
2023/08/29 04:19:10;;;;;;;8.63;7.00;;;;;;;14.72;71.22;101127.59;5091837;28;20492;-66
2023/08/29 04:21:36;;;;;;;7.82;7.13;;;;;;;14.75;71.13;101129.00;5059884;28;20039;-66
2023/08/29 04:24:01;;;;;;;8.10;6.88;;;;;;;14.72;71.30;101135.97;5055733;28;20029;-66
2023/08/29 04:26:26;;;;;;;9.18;7.00;;;;;;;14.75;71.17;101143.81;5062903;28;20021;-67
2023/08/29 04:28:52;;;;;;;7.95;6.70;;;;;;;14.72;71.24;101130.38;5065710;28;20035;-67
2023/08/29 04:31:19;;;;;;;9.95;7.22;;;;;;;14.69;71.05;101133.72;5058995;28;20025;-66
2023/08/29 04:33:45;;;;;;;9.18;7.50;;;;;;;14.65;71.42;101125.03;5051641;28;20725;-66
2023/08/29 04:36:10;;;;;;;9.00;7.43;;;;;;;14.66;71.52;101125.91;5052106;28;20111;-66
2023/08/29 04:38:35;;;;;;;9.05;7.32;;;;;;;14.63;71.34;101132.03;5051464;28;20127;-67
2023/08/29 04:41:01;;;;;;;8.77;7.53;;;;;;;14.61;71.24;101131.47;5051871;28;20464;-67
2023/08/29 04:43:27;;;;;;;8.27;7.18;;;;;;;14.61;71.47;101126.72;5068941;28;20029;-66
2023/08/29 04:45:53;;;;;;;8.20;7.32;;;;;;;14.63;71.18;101124.50;5079884;28;20157;-66
2023/08/29 04:48:18;;;;;;;8.02;7.25;;;;;;;14.60;71.39;101113.84;5078607;28;20112;-67
2023/08/29 04:50:45;;;;;;;8.38;7.50;;;;;;;14.64;71.07;101116.94;5066721;28;20029;-66
2023/08/29 04:53:11;;;;;;;9.18;7.10;;;;;;;14.60;71.13;101122.25;5051193;28;20051;-66
2023/08/29 04:55:36;;;;;;;8.77;6.80;;;;;;;14.61;71.13;101123.06;5054850;28;20480;-67
2023/08/29 04:58:02;;;;;;;10.02;7.60;;;;;;;14.58;71.57;101118.91;5072052;28;20025;-67
2023/08/29 05:00:28;;;;;;;8.18;7.38;;;;;;;14.58;71.86;101124.50;5065617;28;20155;-66
2023/08/29 05:02:54;;;;;;;10.45;8.32;;;;;;;14.55;72.03;101121.41;5076465;28;20034;-66
2023/08/29 05:05:19;;;;;;;8.40;7.60;;;;;;;14.60;71.93;101121.41;5071825;28;20104;-66
2023/08/29 05:07:44;;;;;;;9.10;7.90;;;;;;;14.60;72.11;101121.41;5070929;28;20103;-66
2023/08/29 05:10:10;;;;;;;8.52;7.72;;;;;;;14.57;72.30;101121.94;5071760;28;20037;-66
2023/08/29 05:12:35;;;;;;;8.85;7.95;;;;;;;14.55;72.28;101119.44;5071189;28;20021;-66
2023/08/29 05:15:01;;;;;;;9.20;8.18;;;;;;;14.57;71.96;101127.53;5071171;28;20048;-67
2023/08/29 05:17:26;;;;;;;8.32;7.50;;;;;;;14.56;72.16;101120.28;5083734;28;20089;-66
2023/08/29 05:19:52;;;;;;;9.95;8.20;;;;;;;14.52;72.24;101124.72;5068632;28;20063;-67
2023/08/29 05:22:17;;;;;;;8.30;7.40;;;;;;;14.55;72.33;101116.66;5070695;28;20117;-67
2023/08/29 05:24:42;;;;;;;8.75;7.85;;;;;;;14.55;72.65;101113.84;5061100;28;20029;-66
2023/08/29 05:27:08;;;;;;;8.93;8.02;;;;;;;14.57;72.56;101119.16;5052895;28;20113;-66
2023/08/29 05:29:33;;;;;;;10.23;8.27;;;;;;;14.57;72.96;101111.59;5051462;28;20039;-67
2023/08/29 05:31:58;;;;;;;9.43;8.55;;;;;;;14.55;73.10;101118.59;5052883;28;20052;-66
2023/08/29 05:34:24;;;;;;;9.18;8.15;;;;;;;14.58;73.50;101123.63;5078887;28;20028;-66
2023/08/29 05:36:49;;;;;;;9.32;7.90;;;;;;;14.57;73.42;101125.56;5056016;28;20033;-66
2023/08/29 05:39:15;;;;;;;8.60;7.60;;;;;;;14.60;73.36;101127.00;5065271;28;20056;-66
2023/08/29 05:41:40;;;;;;;8.80;8.00;;;;;;;14.60;73.21;101130.63;5068574;28;20032;-66
2023/08/29 05:44:05;;;;;;;8.82;7.93;;;;;;;14.64;73.39;101117.78;5068935;28;20162;-67
2023/08/29 05:46:31;;;;;;;8.38;7.57;;;;;;;14.63;73.57;101126.44;5079229;28;20458;-66
2023/08/29 05:48:58;;;;;;;7.97;7.28;;;;;;;14.65;73.48;101124.22;5059085;28;20086;-66
2023/08/29 05:51:23;;;;;;;8.35;7.32;;;;;;;14.65;73.70;101119.47;5056539;28;20040;-66
2023/08/29 05:53:48;;;;;;;8.23;7.45;;;;;;;14.68;73.89;101123.66;5052412;28;20415;-66
2023/08/29 05:56:14;;;;;;;8.30;7.55;;;;;;;14.67;73.95;101128.41;5058650;28;20387;-66
2023/08/29 05:58:40;;;;;;;8.57;7.78;;;;;;;14.67;74.31;101122.00;5056643;28;20040;-66
2023/08/29 06:01:06;;;;;;;8.45;7.60;;;;;;;14.69;74.38;101133.72;5055262;28;20024;-66
2023/08/29 06:03:32;;;;;;;9.35;7.93;;;;;;;14.75;74.37;101135.44;5052354;28;20029;-67
2023/08/29 06:05:57;;;;;;;9.45;8.43;;;;;;;14.77;74.54;101130.41;5067508;28;20093;-68
2023/08/29 06:08:23;;;;;;;10.50;9.45;;;;;;;14.71;74.71;101126.75;5067676;28;20024;-67
2023/08/29 06:10:48;;;;;;;10.63;9.52;;;;;;;14.71;74.81;101131.50;5061060;28;20455;-67
2023/08/29 06:13:14;;;;;;;8.10;7.25;;;;;;;14.90;79.08;101134.66;5094425;28;20020;-66
2023/08/29 06:15:39;;;;;;;10.82;9.73;;;;;;;14.85;75.78;101124.28;5093365;28;20088;-66
2023/08/29 06:18:04;;;;;;;12.73;10.10;;;;;;;14.88;75.15;101126.53;5093731;28;20395;-68
2023/08/29 06:20:31;;;;;;;10.20;8.73;;;;;;;14.91;75.34;101133.53;5094198;28;20039;-68
2023/08/29 06:22:58;;;;;;;10.95;9.52;;;;;;;14.94;75.47;101127.41;5085364;28;20029;-68
2023/08/29 06:25:24;;;;;;;10.95;9.30;;;;;;;14.96;75.62;101123.19;5073665;28;20044;-68
2023/08/29 06:27:49;;;;;;;9.77;8.73;;;;;;;15.05;75.24;101120.72;5068822;28;20028;-69
2023/08/29 06:30:15;;;;;;;9.65;8.60;;;;;;;15.12;75.37;101124.06;5071386;28;20111;-69
2023/08/29 06:32:41;;;;;;;9.52;8.63;;;;;;;15.15;75.71;101125.47;5070036;28;20388;-69
2023/08/29 06:35:09;;;;;;;9.90;8.93;;;;;;;15.20;75.77;101125.47;5070471;28;20060;-68
2023/08/29 06:37:36;;;;;;;9.10;8.20;;;;;;;15.27;75.84;101122.41;5070729;28;20150;-67
2023/08/29 06:40:01;;;;;;;10.63;9.52;;;;;;;15.26;75.98;101124.38;5081595;28;20056;-68
2023/08/29 06:42:27;;;;;;;12.40;9.80;;;;;;;15.29;76.01;101115.44;5047787;28;20079;-67
2023/08/29 06:44:56;;;;;;;10.50;9.43;;;;;;;15.32;76.24;101120.44;5066421;28;20025;-66
2023/08/29 06:47:22;;;;;;;10.68;9.55;;;;;;;15.35;76.27;101116.25;5072200;28;20032;-67
2023/08/29 06:49:47;;;;;;;11.18;10.07;;;;;;;15.39;76.34;101112.63;5073393;28;20037;-66
2023/08/29 06:52:12;;;;;;;10.70;9.50;;;;;;;15.43;76.53;101110.94;5072415;28;20029;-67
2023/08/29 06:54:38;;;;;;;12.05;9.77;;;;;;;15.53;76.64;101123.28;5091526;28;20039;-66
2023/08/29 06:57:04;;;;;;;12.95;9.80;;;;;;;15.55;76.98;101121.84;5061952;28;20590;-66
2023/08/29 06:59:29;;;;;;;11.32;9.98;;;;;;;15.54;77.15;101125.78;5057501;28;20036;-66
2023/08/29 07:01:54;;;;;;;11.25;10.15;;;;;;;15.59;76.89;101127.72;5052963;28;20029;-66
2023/08/29 07:04:20;;;;;;;11.50;10.30;;;;;;;15.60;76.79;101135.88;5053062;28;20444;-67
2023/08/29 07:06:45;;;;;;;9.75;8.75;;;;;;;15.62;77.01;101135.56;5064471;28;20020;-67
2023/08/29 07:09:10;;;;;;;12.00;9.23;;;;;;;15.64;77.57;101127.72;5076859;28;20044;-67
2023/08/29 07:11:35;;;;;;;10.98;9.82;;;;;;;15.65;78.01;101121.91;5074255;28;20028;-67
2023/08/29 07:14:01;;;;;;;10.65;9.60;;;;;;;15.71;78.02;101125.53;5071326;28;20025;-66
2023/08/29 07:16:26;;;;;;;9.93;8.77;;;;;;;15.77;77.58;101124.41;5064325;28;20421;-70
2023/08/29 07:18:51;;;;;;;10.25;8.80;;;;;;;15.81;77.77;101128.31;5068693;28;20055;-69
2023/08/29 07:21:17;;;;;;;11.68;10.02;;;;;;;15.86;78.11;101133.06;5061036;28;20024;-67
2023/08/29 07:23:42;;;;;;;10.20;9.05;;;;;;;15.91;77.60;101131.09;5091745;28;20051;-66
2023/08/29 07:26:08;;;;;;;11.45;9.60;;;;;;;15.90;77.86;101140.63;5093046;28;20016;-67
2023/08/29 07:28:34;;;;;;;11.32;9.98;;;;;;;15.94;78.01;101133.31;5081126;28;20032;-67
2023/08/29 07:30:59;;;;;;;11.27;9.20;;;;;;;15.97;77.50;101133.91;5069662;28;20045;-66
2023/08/29 07:33:24;;;;;;;10.48;9.23;;;;;;;16.01;77.91;101135.00;5053472;28;20029;-66
2023/08/29 07:35:50;;;;;;;12.40;9.80;;;;;;;16.02;78.23;101131.91;5051567;28;20040;-66
2023/08/29 07:38:17;;;;;;;10.95;9.80;;;;;;;16.06;78.31;101140.59;5052546;28;20099;-67
2023/08/29 07:40:46;;;;;;;15.48;10.43;;;;;;;16.10;77.86;101138.91;5056002;28;20463;-69
2023/08/29 07:43:12;;;;;;;15.57;10.10;;;;;;;16.12;77.72;101139.47;5081376;28;20383;-68
2023/08/29 07:45:38;;;;;;;17.10;8.80;;;;;;;16.16;77.17;101138.63;5078138;28;20109;-68
2023/08/29 07:48:03;;;;;;;12.27;9.48;;;;;;;16.25;77.46;101144.47;5080044;28;20096;-67
2023/08/29 07:50:29;;;;;;;11.23;9.90;;;;;;;16.29;77.56;101145.59;5051675;28;20168;-68
2023/08/29 07:52:55;;;;;;;12.35;9.65;;;;;;;16.32;77.30;101139.41;5051895;28;20547;-67
2023/08/29 07:55:21;;;;;;;8.95;8.05;;;;;;;16.38;77.48;101141.06;5051430;28;20029;-66
2023/08/29 07:57:49;;;;;;;11.68;8.38;;;;;;;16.41;77.75;101140.50;5051998;28;20021;-66
2023/08/29 08:00:15;;;;;;;9.25;8.25;;;;;;;16.44;77.27;101134.34;5052235;28;20029;-66
2023/08/29 08:02:41;;;;;;;11.10;8.30;;;;;;;16.48;76.96;101128.16;5061335;28;20055;-66
2023/08/29 08:05:08;;;;;;;12.32;8.10;;;;;;;16.49;76.47;101135.44;5072516;28;20102;-66
2023/08/29 08:07:34;;;;;;;9.95;8.50;;;;;;;16.49;77.03;101127.88;5051781;28;20108;-67
2023/08/29 08:09:59;;;;;;;9.02;7.55;;;;;;;16.54;76.84;101138.22;5051655;28;20096;-66
2023/08/29 08:12:25;;;;;;;10.38;8.50;;;;;;;16.56;76.58;101135.97;5051683;28;20472;-68
2023/08/29 08:14:52;;;;;;;9.30;8.20;;;;;;;16.59;76.50;101138.22;5051795;28;20055;-66
2023/08/29 08:17:18;;;;;;;10.13;7.07;;;;;;;16.64;76.85;101130.59;5065501;28;20441;-66
2023/08/29 08:19:43;;;;;;;9.50;7.63;;;;;;;16.73;76.66;101135.63;5067245;28;20107;-67
2023/08/29 08:22:10;;;;;;;9.50;7.70;;;;;;;16.81;76.44;101149.06;5070725;28;20036;-66
2023/08/29 08:24:35;;;;;;;9.13;7.68;;;;;;;16.85;76.57;101139.78;5070680;28;20024;-67
2023/08/29 08:27:01;;;;;;;9.60;7.95;;;;;;;16.90;75.79;101127.72;5072027;28;20068;-67
2023/08/29 08:29:26;;;;;;;9.27;7.63;;;;;;;16.99;75.61;101133.56;5071564;28;20082;-67
2023/08/29 08:31:51;;;;;;;9.98;7.53;;;;;;;17.06;75.45;101140.53;5083804;28;20534;-66
2023/08/29 08:34:20;;;;;;;8.82;7.93;;;;;;;17.11;75.37;101134.03;5086528;28;20549;-66
2023/08/29 08:36:45;;;;;;;13.25;9.27;;;;;;;17.18;75.43;101138.19;5065600;28;20136;-67
2023/08/29 08:39:10;;;;;;;9.82;8.57;;;;;;;17.26;74.67;101133.94;5051487;28;20115;-67
2023/08/29 08:41:37;;;;;;;8.05;7.25;;;;;;;17.31;74.24;101136.69;5061321;28;20041;-67
2023/08/29 08:44:05;;;;;;;9.60;7.90;;;;;;;17.35;74.33;101137.78;5071438;28;20032;-67
2023/08/29 08:46:31;;;;;;;9.43;7.10;;;;;;;17.38;74.40;101136.38;5070523;28;20038;-67
2023/08/29 08:48:58;;;;;;;8.43;7.07;;;;;;;17.43;74.08;101134.38;5071159;28;20025;-67
2023/08/29 08:51:26;;;;;;;8.35;6.07;;;;;;;17.46;73.56;101132.13;5067826;28;20063;-68
2023/08/29 08:53:53;;;;;;;8.13;5.45;;;;;;;17.49;73.42;101132.38;5064684;28;20301;-68
2023/08/29 08:56:19;;;;;;;7.07;5.43;;;;;;;17.50;72.67;101136.84;5088461;28;20024;-68
2023/08/29 08:58:45;;;;;;;8.60;5.95;;;;;;;17.49;72.64;101137.13;5090705;28;20375;-68
2023/08/29 09:01:12;;;;;;;10.68;5.95;;;;;;;17.46;72.13;101126.50;5091414;28;20026;-68
2023/08/29 09:03:38;;;;;;;5.72;4.63;;;;;;;17.49;72.72;101131.50;5091194;28;20043;-68
2023/08/29 09:06:05;;;;;;;8.45;5.85;;;;;;;17.47;72.34;101129.00;5090886;28;20024;-68
2023/08/29 09:08:31;;;;;;;6.05;4.53;;;;;;;17.45;72.11;101134.09;5080975;28;20032;-68
2023/08/29 09:11:01;;;;;;;6.22;3.78;;;;;;;17.51;72.55;101132.06;5069960;28;20062;-68
2023/08/29 09:13:26;;;;;;;5.13;4.10;;;;;;;17.53;71.41;101124.22;5060918;28;20090;-67
2023/08/29 09:15:52;;;;;;;6.82;3.90;;;;;;;17.63;71.52;101136.16;5068530;28;20095;-67
2023/08/29 09:18:25;;;;;;;5.25;3.83;;;;;;;17.65;71.79;101136.72;5058013;28;20047;-67
2023/08/29 09:20:54;;;;;;;4.63;3.70;;;;;;;17.68;71.34;101135.28;5073302;28;20063;-67
2023/08/29 09:23:21;;;;;;;5.18;3.63;;;;;;;17.73;71.16;101132.44;5081539;28;20056;-67
2023/08/29 09:25:55;;;;;;;5.32;4.18;;;;;;;17.85;71.50;101135.72;5060481;28;20029;-67
2023/08/29 09:28:21;;;;;;;5.53;3.85;;;;;;;17.96;71.84;101147.72;5048042;28;20056;-67
2023/08/29 09:30:47;;;;;;;6.28;3.80;;;;;;;18.05;71.45;101139.47;5067171;28;20040;-68
2023/08/29 09:33:13;;;;;;;4.28;3.70;;;;;;;18.10;71.83;101148.69;5083377;28;20139;-68
2023/08/29 09:35:38;;;;;;;4.10;3.38;;;;;;;18.20;70.66;101144.09;5083977;28;20126;-68
2023/08/29 09:38:04;;;;;;;3.20;2.70;;;;;;;18.21;69.97;101146.59;5092096;28;20016;-68
2023/08/29 09:40:29;;;;;;;4.95;2.97;;;;;;;18.18;69.18;101146.38;5090151;28;20025;-69
2023/08/29 09:43:02;;;;;;;6.03;3.53;;;;;;;18.13;68.92;101142.47;5086346;28;20075;-68
2023/08/29 09:45:31;;;;;;;4.20;3.53;;;;;;;18.06;68.82;101146.75;5056418;28;20484;-68
2023/08/29 09:48:06;;;;;;;5.20;3.10;;;;;;;18.07;69.47;101137.19;5053881;28;20105;-69
2023/08/29 09:50:32;;;;;;;4.10;2.65;;;;;;;18.07;69.40;101137.19;5053365;28;20039;-67
2023/08/29 09:52:59;;;;;;;4.55;2.50;;;;;;;18.07;70.43;101137.19;5053400;28;20044;-67
2023/08/29 09:55:26;;;;;;;3.47;2.35;;;;;;;18.09;69.12;101126.50;5084977;28;20130;-67
2023/08/29 09:57:53;;;;;;;3.67;2.13;;;;;;;18.07;68.05;101123.97;5093489;28;20035;-68
2023/08/29 10:00:20;;;;;;;4.32;2.60;;;;;;;18.06;68.02;101124.28;5082589;28;20028;-67
2023/08/29 10:02:54;;;;;;;4.72;3.13;;;;;;;18.07;68.73;101125.97;5072922;28;20024;-67
2023/08/29 10:05:23;;;;;;;5.40;3.40;;;;;;;18.10;69.13;101128.19;5084005;28;20529;-67
2023/08/29 10:07:54;;;;;;;5.03;3.17;;;;;;;18.07;69.03;101112.75;5082621;28;20077;-68
2023/08/29 10:10:21;;;;;;;5.10;3.90;;;;;;;18.10;69.33;101120.59;5067633;28;20025;-68
2023/08/29 10:12:48;;;;;;;4.70;3.70;;;;;;;18.12;69.25;101123.13;5089328;28;20048;-67
2023/08/29 10:15:14;;;;;;;4.82;3.58;;;;;;;18.11;69.66;101124.22;5085186;28;20521;-67
2023/08/29 10:17:41;;;;;;;6.35;3.97;;;;;;;18.13;69.38;101119.16;5067131;28;20044;-67
2023/08/29 10:20:09;;;;;;;3.95;3.10;;;;;;;18.14;68.47;101115.22;5085019;28;20058;-67
2023/08/29 10:22:37;;;;;;;6.55;3.58;;;;;;;18.16;68.63;101115.75;5069044;28;20441;-68
2023/08/29 10:25:03;;;;;;;7.13;3.70;;;;;;;18.13;68.72;101110.75;5085787;28;20031;-68
2023/08/29 10:27:30;;;;;;;5.97;3.63;;;;;;;18.13;67.70;101113.53;5086059;28;20053;-68
2023/08/29 10:29:56;;;;;;;4.22;3.35;;;;;;;18.10;67.32;101117.78;5084706;28;20042;-68
2023/08/29 10:32:24;;;;;;;4.95;3.08;;;;;;;18.10;68.06;101114.13;5081002;28;20467;-68
2023/08/29 10:34:50;;;;;;;3.97;3.17;;;;;;;18.12;68.00;101106.25;5085768;28;20107;-67
2023/08/29 10:37:20;;;;;;;4.57;3.30;;;;;;;18.11;67.75;101107.38;5073960;28;20020;-68
2023/08/29 10:39:46;;;;;;;4.53;3.17;;;;;;;18.14;67.62;101098.34;5071019;28;20039;-68
2023/08/29 10:42:14;;;;;;;4.45;3.05;;;;;;;18.18;68.50;101098.59;5074774;28;20032;-68
2023/08/29 10:44:41;;;;;;;5.10;3.20;;;;;;;18.20;67.36;101105.59;5080001;28;20081;-67
2023/08/29 10:47:14;;;;;;;4.55;3.55;;;;;;;18.20;67.41;101097.19;5085830;28;20084;-68
2023/08/29 10:49:43;;;;;;;8.05;3.72;;;;;;;18.20;67.97;101101.97;5087080;28;20035;-68
2023/08/29 10:52:10;;;;;;;6.75;2.90;;;;;;;18.24;67.53;101097.41;5075836;28;20078;-68
2023/08/29 10:54:35;;;;;;;6.13;3.30;;;;;;;18.27;67.30;101094.00;5078916;28;20058;-67
2023/08/29 10:57:01;;;;;;;3.22;2.75;;;;;;;18.29;67.23;101097.34;5080588;28;20060;-67
2023/08/29 10:59:32;;;;;;;4.57;2.60;;;;;;;18.29;66.49;101088.91;5082957;28;20021;-67
2023/08/29 11:02:41;;;;;;;3.47;2.58;;;;;;;18.40;67.62;101087.66;5083866;28;20024;-68
2023/08/29 11:05:06;;;;;;;3.58;2.30;;;;;;;18.46;66.35;101077.19;5068631;28;20024;-68
2023/08/29 11:07:34;;;;;;;2.83;1.73;;;;;;;18.62;65.39;101081.47;5074954;28;20086;-68
2023/08/29 11:10:20;;;;;;;2.60;1.55;;;;;;;18.77;65.47;101084.09;5065118;28;20029;-66
2023/08/29 11:13:06;;;;;;;3.53;1.52;;;;;;;18.95;64.46;101081.63;5063921;28;20020;-66
2023/08/29 11:15:49;;;;;;;3.92;1.40;;;;;;;19.08;63.67;101069.59;5086120;28;20138;-68
2023/08/29 11:18:26;;;;;;;1.52;1.30;;;;;;;19.23;62.97;101074.97;5069466;28;20045;-67
2023/08/29 11:20:53;;;;;;;3.53;1.90;;;;;;;19.26;63.05;101067.91;5069040;28;20038;-67